Time;durP1;ratioP1;P1;durP2;ratioP2;P2;SDS_P1;SDS_P2;PMS_P1;PMS_P2;Temp;Humidity;BMP_temperature;BMP_pressure;BME280_temperature;BME280_humidity;BME280_pressure;Samples;Min_cycle;Max_cycle;Signal;HPM_P1;HPM_P2
2022/07/02 00:02:23;;;;;;;3.55;1.33;;;18.80;99.90;;;;;;5102627;27;45575;-69
2022/07/02 00:04:57;;;;;;;4.40;1.35;;;18.90;99.90;;;;;;5103045;27;45460;-69
2022/07/02 00:07:25;;;;;;;6.45;1.60;;;18.90;99.90;;;;;;5099945;27;45631;-69
2022/07/02 00:09:55;;;;;;;3.30;1.90;;;18.90;99.90;;;;;;5100112;27;47697;-69
2022/07/02 00:12:23;;;;;;;6.38;1.42;;;18.90;99.90;;;;;;5102877;27;45561;-69
2022/07/02 00:14:53;;;;;;;5.70;1.50;;;18.90;99.90;;;;;;5100664;27;45415;-69
2022/07/02 00:17:20;;;;;;;4.05;1.92;;;18.90;99.90;;;;;;5100021;27;45861;-69
2022/07/02 00:19:47;;;;;;;5.40;1.45;;;18.90;99.90;;;;;;5101646;27;45489;-69
2022/07/02 00:22:15;;;;;;;1.90;1.17;;;18.90;99.90;;;;;;5100642;27;45536;-68
2022/07/02 00:24:42;;;;;;;3.83;1.40;;;18.90;99.90;;;;;;5100659;27;45467;-69
2022/07/02 00:27:12;;;;;;;3.13;1.20;;;18.80;99.90;;;;;;5102297;27;45438;-69
2022/07/02 00:29:44;;;;;;;7.65;1.67;;;18.80;99.90;;;;;;5100832;27;46321;-69
2022/07/02 00:32:12;;;;;;;4.32;1.30;;;18.80;99.90;;;;;;5099527;27;45404;-69
2022/07/02 00:34:40;;;;;;;3.42;1.20;;;18.80;99.90;;;;;;5103675;27;45363;-69
2022/07/02 00:37:08;;;;;;;3.05;1.52;;;18.80;99.90;;;;;;5103558;27;45429;-69
2022/07/02 00:39:35;;;;;;;4.22;1.35;;;18.70;99.90;;;;;;5098920;27;47356;-68
2022/07/02 00:42:04;;;;;;;3.80;1.23;;;18.70;99.90;;;;;;5100174;27;45407;-69
2022/07/02 00:44:32;;;;;;;3.70;1.30;;;18.70;99.90;;;;;;5098379;27;45698;-69
2022/07/02 00:47:04;;;;;;;4.97;1.40;;;18.60;99.90;;;;;;5103278;27;45578;-69
2022/07/02 00:49:32;;;;;;;3.53;1.25;;;18.70;99.90;;;;;;5103018;27;45341;-69
2022/07/02 00:51:58;;;;;;;5.28;1.42;;;18.60;99.90;;;;;;5101050;27;45581;-68
2022/07/02 00:54:25;;;;;;;5.07;1.27;;;18.60;99.90;;;;;;5101426;27;45505;-69
2022/07/02 00:56:52;;;;;;;1.98;1.02;;;18.60;99.90;;;;;;5103999;27;45407;-69
2022/07/02 00:59:20;;;;;;;5.35;1.63;;;18.60;99.90;;;;;;5098053;27;46534;-69
2022/07/02 01:01:48;;;;;;;4.07;1.42;;;18.50;99.90;;;;;;5101504;27;45408;-68
2022/07/02 01:04:16;;;;;;;4.40;1.25;;;18.50;99.90;;;;;;5103855;27;45280;-69
2022/07/02 01:06:43;;;;;;;4.45;1.33;;;18.50;99.90;;;;;;5099590;27;45570;-69
2022/07/02 01:11:59;;;;;;;2.63;1.17;;;18.50;99.90;;;;;;5100007;27;45515;-69
2022/07/02 01:14:26;;;;;;;4.45;1.40;;;18.60;99.90;;;;;;5100390;27;45516;-69
2022/07/02 01:16:55;;;;;;;7.00;1.48;;;18.60;99.90;;;;;;5103068;27;45472;-69
2022/07/02 01:19:23;;;;;;;5.72;1.25;;;18.50;99.90;;;;;;5101117;27;47453;-69
2022/07/02 01:22:15;;;;;;;3.78;1.42;;;18.50;99.90;;;;;;5098125;27;45780;-68
2022/07/02 01:24:42;;;;;;;4.10;1.35;;;18.50;99.90;;;;;;5096915;27;45372;-69
2022/07/02 01:27:09;;;;;;;6.15;1.50;;;18.40;99.90;;;;;;5102253;27;45355;-69
2022/07/02 01:29:36;;;;;;;3.22;1.15;;;18.40;99.90;;;;;;5101794;27;47338;-69
2022/07/02 01:32:03;;;;;;;9.50;1.38;;;18.40;99.90;;;;;;5098684;27;45515;-69
2022/07/02 01:34:33;;;;;;;4.13;0.85;;;18.40;99.90;;;;;;5100304;27;45416;-69
2022/07/02 01:37:00;;;;;;;2.53;1.20;;;18.40;99.90;;;;;;5099568;27;45330;-69
2022/07/02 01:39:28;;;;;;;2.80;1.23;;;18.40;99.90;;;;;;5101774;27;48191;-69
2022/07/02 01:41:55;;;;;;;4.25;1.08;;;18.40;99.90;;;;;;5101179;27;45473;-69
2022/07/02 01:44:22;;;;;;;2.50;1.17;;;18.40;99.90;;;;;;5100997;27;45459;-69
2022/07/02 01:46:49;;;;;;;5.97;1.15;;;18.40;99.90;;;;;;5099400;27;45283;-69
2022/07/02 01:49:16;;;;;;;4.18;1.30;;;18.40;99.90;;;;;;5101730;27;45303;-69
2022/07/02 01:51:43;;;;;;;3.67;1.38;;;;;;;;;;5098527;27;45601;-69
2022/07/02 01:54:10;;;;;;;2.55;1.00;;;;;;;;;;5101984;27;45633;-68
2022/07/02 01:56:38;;;;;;;6.40;1.27;;;;;;;;;;5103750;27;45395;-69
2022/07/02 01:59:05;;;;;;;2.90;1.20;;;;;;;;;;5103237;27;46374;-68
2022/07/02 02:01:33;;;;;;;5.30;1.30;;;;;;;;;;5101348;27;45374;-68
2022/07/02 02:04:00;;;;;;;2.60;1.13;;;;;;;;;;5100235;27;45626;-69
2022/07/02 02:06:27;;;;;;;3.70;1.25;;;;;;;;;;5099668;27;45623;-69
2022/07/02 02:08:55;;;;;;;3.80;1.38;;;;;;;;;;5102370;27;46545;-69
2022/07/02 02:11:22;;;;;;;3.85;1.20;;;;;;;;;;5101508;27;45304;-69
2022/07/02 02:13:50;;;;;;;4.22;1.33;;;;;;;;;;5100917;27;45319;-69
2022/07/02 02:16:18;;;;;;;3.47;1.40;;;;;;;;;;5100812;27;45316;-69
2022/07/02 02:18:45;;;;;;;6.15;1.38;;;;;;;;;;5103254;27;47724;-69
2022/07/02 02:21:12;;;;;;;6.50;1.13;;;;;;;;;;5100836;27;45474;-69
2022/07/02 02:23:39;;;;;;;9.38;1.45;;;;;;;;;;5101663;27;45321;-69
2022/07/02 02:26:06;;;;;;;6.05;1.50;;;;;;;;;;5098712;27;45475;-69
2022/07/02 02:28:33;;;;;;;2.30;1.00;;;;;;;;;;5100492;27;46552;-69
2022/07/02 02:31:01;;;;;;;8.05;1.48;;;;;;;;;;5098906;27;45269;-68
2022/07/02 02:33:28;;;;;;;5.90;1.02;;;;;;;;;;5098115;27;45522;-69
2022/07/02 02:35:55;;;;;;;8.68;2.08;;;;;;;;;;5101076;27;45543;-69
2022/07/02 02:38:23;;;;;;;12.18;4.60;;;;;;;;;;5101417;27;47513;-69
2022/07/02 02:40:50;;;;;;;15.75;4.20;;;;;;;;;;5101294;27;45740;-69
2022/07/02 02:43:17;;;;;;;5.80;2.53;;;;;;;;;;5102882;27;45367;-68
2022/07/02 02:45:44;;;;;;;15.38;4.38;;;;;;;;;;5093266;27;45369;-69
2022/07/02 02:48:12;;;;;;;10.60;3.60;;;;;;;;;;5100955;27;46585;-69
2022/07/02 02:50:39;;;;;;;5.15;2.10;;;;;;;;;;5102010;27;45481;-69
2022/07/02 02:53:06;;;;;;;8.65;1.23;;;;;;;;;;5101431;27;45354;-69
2022/07/02 02:55:33;;;;;;;4.32;1.50;;;;;;;;;;5100525;27;45614;-68
2022/07/02 02:58:01;;;;;;;3.97;1.48;;;;;;;;;;5100789;27;45395;-69
2022/07/02 03:00:28;;;;;;;3.38;1.38;;;;;;;;;;5099975;27;45564;-69
2022/07/02 03:02:56;;;;;;;2.88;1.20;;;;;;;;;;5100620;27;45373;-69
2022/07/02 03:05:25;;;;;;;1.98;0.98;;;;;;;;;;5100690;27;45436;-69
2022/07/02 03:07:52;;;;;;;3.22;1.15;;;;;;;;;;5102000;27;46272;-68
2022/07/02 03:10:19;;;;;;;4.60;1.63;;;;;;;;;;5101408;27;45415;-69
2022/07/02 03:12:46;;;;;;;7.47;1.40;;;;;;;;;;5103285;27;45379;-68
2022/07/02 03:15:13;;;;;;;3.72;1.50;;;17.70;99.90;;;;;;5104896;27;45732;-69
2022/07/02 03:17:40;;;;;;;3.00;1.42;;;17.60;99.90;;;;;;5102417;27;47342;-68
2022/07/02 03:20:08;;;;;;;3.28;1.52;;;17.50;99.90;;;;;;5103644;27;45890;-69
2022/07/02 03:22:36;;;;;;;7.70;1.60;;;17.40;99.90;;;;;;5102867;27;45369;-68
2022/07/02 03:25:03;;;;;;;2.45;1.20;;;17.40;99.90;;;;;;5103584;27;45307;-68
2022/07/02 03:27:30;;;;;;;5.60;0.95;;;17.40;99.40;;;;;;5105195;27;47830;-68
2022/07/02 03:29:57;;;;;;;4.22;1.15;;;17.20;99.90;;;;;;5105261;27;45841;-69
2022/07/02 03:32:25;;;;;;;4.35;1.20;;;17.10;99.90;;;;;;5103369;27;45544;-68
2022/07/02 03:34:52;;;;;;;6.20;1.55;;;17.10;99.90;;;;;;5102840;27;45496;-68
2022/07/02 03:37:19;;;;;;;5.57;1.40;;;17.00;99.90;;;;;;5103933;27;45323;-69
2022/07/02 03:39:47;;;;;;;4.28;1.58;;;17.10;99.90;;;;;;5103936;27;45482;-68
2022/07/02 03:42:14;;;;;;;2.75;1.52;;;17.20;99.90;;;;;;5101178;27;45311;-68
2022/07/02 03:44:41;;;;;;;7.80;1.40;;;17.30;99.90;;;;;;5105278;27;45274;-68
2022/07/02 03:47:08;;;;;;;2.55;1.35;;;17.20;99.60;;;;;;5103547;27;45549;-68
2022/07/02 03:49:35;;;;;;;8.02;1.38;;;17.20;99.70;;;;;;5102941;27;45388;-68
2022/07/02 03:52:01;;;;;;;3.25;1.38;;;17.20;99.90;;;;;;5102667;27;45390;-68
2022/07/02 03:54:28;;;;;;;5.80;1.80;;;17.30;99.90;;;;;;5102816;27;45271;-68
2022/07/02 03:56:57;;;;;;;3.72;1.40;;;17.30;99.90;;;;;;5104403;27;48499;-68
2022/07/02 03:59:24;;;;;;;4.13;1.50;;;17.40;99.90;;;;;;5102363;27;45406;-69
2022/07/02 04:01:52;;;;;;;5.93;1.55;;;17.40;99.90;;;;;;5102567;27;45394;-68
2022/07/02 04:04:19;;;;;;;5.25;1.27;;;17.40;99.80;;;;;;5104739;27;45330;-69
2022/07/02 04:06:46;;;;;;;4.20;1.60;;;17.40;99.70;;;;;;5104770;27;45541;-68
2022/07/02 04:09:13;;;;;;;2.63;1.50;;;17.40;99.50;;;;;;5101990;27;45498;-68
2022/07/02 04:11:39;;;;;;;3.75;1.63;;;17.40;99.50;;;;;;5102621;27;45351;-68
2022/07/02 04:14:07;;;;;;;8.18;1.52;;;17.40;99.40;;;;;;5102242;27;45409;-68
2022/07/02 04:16:34;;;;;;;4.60;1.33;;;17.50;99.40;;;;;;5102990;27;46560;-68
2022/07/02 04:19:01;;;;;;;9.88;1.75;;;17.50;99.30;;;;;;5102449;27;45450;-69
2022/07/02 04:21:28;;;;;;;8.15;1.75;;;17.50;99.40;;;;;;5104302;27;45319;-68
2022/07/02 04:23:55;;;;;;;7.10;1.58;;;17.50;99.40;;;;;;5098234;27;45449;-69
2022/07/02 04:26:22;;;;;;;6.75;2.10;;;17.40;99.40;;;;;;5101325;27;46634;-68
2022/07/02 04:28:48;;;;;;;8.20;1.70;;;17.50;99.50;;;;;;5102075;27;45671;-68
2022/07/02 04:31:16;;;;;;;8.20;1.95;;;17.50;99.10;;;;;;5104709;27;45355;-68
2022/07/02 04:33:44;;;;;;;8.80;1.60;;;17.60;98.90;;;;;;5102416;27;45398;-69
2022/07/02 04:36:10;;;;;;;5.05;1.98;;;17.60;98.60;;;;;;5103797;27;48171;-68
2022/07/02 04:38:38;;;;;;;7.40;1.52;;;17.60;98.60;;;;;;5104009;27;45983;-68
2022/07/02 04:41:04;;;;;;;3.15;1.35;;;17.70;98.30;;;;;;5103455;27;45286;-68
2022/07/02 04:43:31;;;;;;;5.85;2.05;;;17.60;98.60;;;;;;5104301;27;45247;-68
2022/07/02 04:45:58;;;;;;;11.00;2.05;;;17.70;98.10;;;;;;5102261;27;45295;-69
2022/07/02 04:48:26;;;;;;;3.78;1.08;;;17.80;98.20;;;;;;5102404;27;45429;-68
2022/07/02 04:50:53;;;;;;;6.97;1.40;;;17.70;98.10;;;;;;5102899;27;45276;-68
2022/07/02 04:53:20;;;;;;;7.47;1.60;;;17.80;97.90;;;;;;5103976;27;45472;-68
2022/07/02 04:55:47;;;;;;;9.07;1.67;;;;;;;;;;5101998;27;45500;-68
2022/07/02 04:58:13;;;;;;;7.82;1.73;;;15.70;95.70;;;;;;5099367;27;45471;-68
2022/07/02 05:00:40;;;;;;;8.32;2.95;;;15.00;98.60;;;;;;5101481;27;45537;-68
2022/07/02 05:03:07;;;;;;;7.53;1.70;;;14.80;99.90;;;;;;5095949;27;45411;-69
2022/07/02 05:05:35;;;;;;;4.70;1.98;;;14.80;99.90;;;;;;5102800;27;46543;-68
2022/07/02 05:08:02;;;;;;;10.60;1.75;;;14.80;99.90;;;;;;5102423;27;45571;-68
2022/07/02 05:10:29;;;;;;;3.00;1.40;;;14.70;99.90;;;;;;5101821;27;45490;-68
2022/07/02 05:12:56;;;;;;;9.55;3.03;;;14.80;99.90;;;;;;5102145;27;45316;-68
2022/07/02 05:15:23;;;;;;;5.18;1.40;;;15.20;99.90;;;;;;5099513;27;45384;-68
2022/07/02 05:17:50;;;;;;;6.18;1.80;;;16.50;99.90;;;;;;5103234;27;45476;-68
2022/07/02 05:20:17;;;;;;;4.85;1.13;;;17.70;95.80;;;;;;5101709;27;45370;-69
2022/07/02 05:22:45;;;;;;;4.10;1.52;;;18.60;94.00;;;;;;5100743;27;45562;-68
2022/07/02 05:25:12;;;;;;;5.88;1.58;;;18.10;92.00;;;;;;5101131;27;46271;-68
2022/07/02 05:27:38;;;;;;;3.85;1.30;;;16.50;95.90;;;;;;5102209;27;45224;-68
2022/07/02 05:30:06;;;;;;;2.03;1.05;;;16.20;97.90;;;;;;5093684;27;45492;-68
2022/07/02 05:32:33;;;;;;;6.03;1.45;;;17.40;96.60;;;;;;5101405;27;45548;-68
2022/07/02 05:35:00;;;;;;;4.38;1.15;;;18.30;93.20;;;;;;5103514;27;45479;-68
2022/07/02 05:37:27;;;;;;;6.82;1.40;;;18.90;92.20;;;;;;5103582;27;45686;-68
2022/07/02 05:39:55;;;;;;;3.35;1.00;;;19.40;90.20;;;;;;5099559;27;45306;-68
2022/07/02 05:42:22;;;;;;;1.65;0.70;;;19.80;90.00;;;;;;5103545;27;45332;-68
2022/07/02 05:44:49;;;;;;;4.15;0.98;;;20.10;88.00;;;;;;5101071;27;47963;-69
2022/07/02 05:47:15;;;;;;;6.97;1.00;;;20.40;86.60;;;;;;5101483;27;45355;-68
2022/07/02 05:49:42;;;;;;;4.53;1.30;;;20.60;85.60;;;;;;5100365;27;45361;-68
2022/07/02 05:52:09;;;;;;;4.00;1.00;;;20.50;82.80;;;;;;5103066;27;45429;-68
2022/07/02 05:54:36;;;;;;;3.63;1.08;;;20.40;85.80;;;;;;5102876;27;47528;-68
2022/07/02 05:57:04;;;;;;;1.55;0.80;;;20.60;84.70;;;;;;5101905;27;45576;-68
2022/07/02 05:59:31;;;;;;;2.97;1.40;;;20.70;84.40;;;;;;5101410;27;45475;-68
2022/07/02 06:01:58;;;;;;;4.45;1.00;;;20.80;83.60;;;;;;5093767;27;45425;-69
2022/07/02 06:04:24;;;;;;;3.15;1.10;;;20.90;83.10;;;;;;5101335;27;47524;-68
2022/07/02 06:09:35;;;;;;;1.23;0.80;;;20.80;83.80;;;;;;5101064;27;45265;-68
2022/07/02 06:12:04;;;;;;;5.00;0.95;;;20.50;84.90;;;;;;5101854;27;45608;-68
2022/07/02 06:14:30;;;;;;;2.75;0.75;;;20.70;84.30;;;;;;5099787;27;45491;-69
2022/07/02 06:16:57;;;;;;;2.72;0.98;;;20.90;83.60;;;;;;5102115;27;45458;-68
2022/07/02 06:19:24;;;;;;;4.25;0.98;;;21.00;82.90;;;;;;5102696;27;45270;-68
2022/07/02 06:21:51;;;;;;;3.97;1.02;;;21.10;84.60;;;;;;5102562;27;45426;-68
2022/07/02 06:24:17;;;;;;;3.20;0.70;;;21.10;82.30;;;;;;5101324;27;47523;-69
2022/07/02 06:26:44;;;;;;;3.55;1.00;;;21.20;82.40;;;;;;5100726;27;45652;-69
2022/07/02 06:29:12;;;;;;;3.30;1.10;;;21.20;82.40;;;;;;5100996;27;45512;-69
2022/07/02 06:31:39;;;;;;;2.40;0.63;;;21.20;81.90;;;;;;5102499;27;45250;-68
2022/07/02 06:34:06;;;;;;;3.17;0.93;;;21.30;81.80;;;;;;5097815;27;46313;-68
2022/07/02 06:36:33;;;;;;;2.63;1.35;;;21.30;81.70;;;;;;5097608;27;46370;-69
2022/07/02 06:39:00;;;;;;;6.20;1.13;;;21.30;81.30;;;;;;5101165;27;45473;-69
2022/07/02 06:44:12;;;;;;;3.33;1.10;;;21.40;81.20;;;;;;5106141;27;45388;-68
2022/07/02 06:46:39;;;;;;;1.65;0.77;;;21.40;81.00;;;;;;5104400;27;45273;-69
2022/07/02 06:49:06;;;;;;;1.48;0.80;;;21.40;80.70;;;;;;5103979;27;45425;-69
2022/07/02 06:51:33;;;;;;;2.58;0.90;;;21.40;80.70;;;;;;5107036;27;45561;-68
2022/07/02 06:54:01;;;;;;;4.47;1.00;;;21.40;80.40;;;;;;5101599;27;47268;-69
2022/07/02 06:56:29;;;;;;;2.80;0.95;;;21.40;80.30;;;;;;5100063;27;45413;-68
2022/07/02 06:58:57;;;;;;;4.68;1.17;;;21.40;80.30;;;;;;5104164;27;45714;-68
2022/07/02 07:01:25;;;;;;;1.95;1.00;;;21.40;80.10;;;;;;5100974;27;45342;-68
2022/07/02 07:03:52;;;;;;;1.30;0.70;;;21.40;79.40;;;;;;5106131;27;47502;-68
2022/07/02 07:06:19;;;;;;;6.15;1.10;;;21.40;80.10;;;;;;5101491;27;45425;-69
2022/07/02 07:08:52;;;;;;;3.67;0.82;;;21.40;80.00;;;;;;5099334;27;45579;-68
2022/07/02 07:11:19;;;;;;;3.35;0.88;;;21.50;79.60;;;;;;5102101;27;45422;-69
2022/07/02 07:13:47;;;;;;;6.55;1.00;;;21.50;79.50;;;;;;5103195;27;46623;-69
2022/07/02 07:16:14;;;;;;;1.83;1.08;;;21.50;79.60;;;;;;5103273;27;45408;-69
2022/07/02 07:18:43;;;;;;;2.03;1.02;;;21.50;79.50;;;;;;5097693;27;45339;-69
2022/07/02 07:21:11;;;;;;;2.05;0.88;;;21.50;79.60;;;;;;5100021;27;45442;-68
2022/07/02 07:23:38;;;;;;;3.78;1.00;;;21.50;79.60;;;;;;5101339;27;46067;-69
2022/07/02 07:26:04;;;;;;;4.57;1.00;;;21.60;79.60;;;;;;5104124;27;45381;-68
2022/07/02 07:28:31;;;;;;;3.78;1.00;;;21.60;79.60;;;;;;5103529;27;45378;-68
2022/07/02 07:30:58;;;;;;;2.50;0.95;;;21.60;79.60;;;;;;5099338;27;45564;-68
2022/07/02 07:33:25;;;;;;;3.78;1.10;;;21.60;79.60;;;;;;5100287;27;46347;-68
2022/07/02 07:35:53;;;;;;;5.63;1.20;;;21.60;79.60;;;;;;5101534;27;45300;-68
2022/07/02 07:38:20;;;;;;;2.83;0.90;;;21.60;79.60;;;;;;5098950;27;45567;-69
2022/07/02 07:40:47;;;;;;;2.30;0.88;;;21.60;79.60;;;;;;5101010;27;45462;-68
2022/07/02 07:43:13;;;;;;;2.40;0.82;;;21.60;79.60;;;;;;5104322;27;47228;-68
2022/07/02 07:45:40;;;;;;;2.67;0.95;;;21.60;79.60;;;;;;5102836;27;45453;-68
2022/07/02 07:48:07;;;;;;;3.80;0.80;;;21.60;79.60;;;;;;5100657;27;45308;-69
2022/07/02 07:50:34;;;;;;;2.55;0.80;;;21.60;79.60;;;;;;5098430;27;45512;-69
2022/07/02 07:53:02;;;;;;;2.65;0.90;;;21.60;79.60;;;;;;5102066;27;46414;-69
2022/07/02 07:55:29;;;;;;;2.63;1.10;;;21.70;79.70;;;;;;5106607;27;45738;-69
2022/07/02 07:57:56;;;;;;;3.63;0.80;;;21.70;79.20;;;;;;5105205;27;45354;-68
2022/07/02 08:00:22;;;;;;;4.05;0.88;;;21.70;79.30;;;;;;5103923;27;45388;-69
2022/07/02 08:02:49;;;;;;;2.38;0.60;;;21.70;79.10;;;;;;5100623;27;45388;-69
2022/07/02 08:05:16;;;;;;;1.77;0.90;;;21.70;79.30;;;;;;5095291;27;45354;-68
2022/07/02 08:07:43;;;;;;;4.20;0.77;;;21.70;78.80;;;;;;5098524;27;45337;-69
2022/07/02 08:10:11;;;;;;;2.50;0.80;;;21.70;80.00;;;;;;5104107;27;45409;-69
2022/07/02 08:12:38;;;;;;;2.63;0.95;;;21.70;78.80;;;;;;5097039;27;45416;-69
2022/07/02 08:15:06;;;;;;;1.85;0.60;;;21.70;76.90;;;;;;5099534;27;45345;-69
2022/07/02 08:17:35;;;;;;;2.08;0.70;;;21.70;74.70;;;;;;5110163;27;45477;-69
2022/07/02 08:20:04;;;;;;;2.00;0.75;;;21.60;78.90;;;;;;5098576;27;45527;-68
2022/07/02 08:22:31;;;;;;;2.83;0.85;;;21.70;78.90;;;;;;5102197;27;45415;-68
2022/07/02 08:24:58;;;;;;;2.83;1.33;;;21.70;78.50;;;;;;5103374;27;45718;-68
2022/07/02 08:27:26;;;;;;;3.83;0.88;;;21.70;78.20;;;;;;5103506;27;45290;-69
2022/07/02 08:29:53;;;;;;;2.63;0.93;;;21.60;75.90;;;;;;5102091;27;45393;-69
2022/07/02 08:32:20;;;;;;;5.88;0.93;;;21.50;78.30;;;;;;5104034;27;46580;-69
2022/07/02 08:34:47;;;;;;;5.03;1.00;;;21.50;78.20;;;;;;5100246;27;45454;-69
2022/07/02 08:37:14;;;;;;;4.18;0.98;;;21.60;72.90;;;;;;5099144;27;45543;-69
2022/07/02 08:39:41;;;;;;;1.88;0.70;;;21.10;76.20;;;;;;5095269;27;45535;-69
2022/07/02 08:42:10;;;;;;;1.27;0.80;;;21.30;78.00;;;;;;5097732;27;46565;-69
2022/07/02 08:44:39;;;;;;;8.43;0.85;;;21.50;79.00;;;;;;5101883;27;45412;-68
2022/07/02 08:47:09;;;;;;;3.40;0.77;;;21.60;67.50;;;;;;5103898;27;45291;-69
2022/07/02 08:49:38;;;;;;;4.43;0.90;;;21.40;66.30;;;;;;5102546;27;45398;-68
2022/07/02 08:52:07;;;;;;;5.55;0.70;;;21.20;69.50;;;;;;5100972;27;46362;-69
2022/07/02 08:54:34;;;;;;;2.85;0.70;;;21.00;67.40;;;;;;5100803;27;45461;-68
2022/07/02 08:57:04;;;;;;;1.70;0.68;;;20.90;69.50;;;;;;5101254;27;45371;-69
2022/07/02 08:59:31;;;;;;;4.22;0.70;;;20.90;71.50;;;;;;5102267;27;45383;-69
2022/07/02 09:02:00;;;;;;;4.28;0.88;;;21.10;73.20;;;;;;5099142;27;46607;-69
2022/07/02 09:04:27;;;;;;;3.10;0.70;;;21.10;71.90;;;;;;5097027;27;45502;-68
2022/07/02 09:06:57;;;;;;;4.47;0.60;;;21.10;64.00;;;;;;5100459;27;45481;-69
2022/07/02 09:09:25;;;;;;;6.10;0.70;;;21.00;64.70;;;;;;5099183;27;45459;-68
2022/07/02 09:11:52;;;;;;;4.28;0.55;;;21.10;63.80;;;;;;5097794;27;45639;-69
2022/07/02 09:14:19;;;;;;;3.13;0.50;;;21.10;65.70;;;;;;5101997;27;45699;-69
2022/07/02 09:16:47;;;;;;;3.65;0.47;;;21.20;64.70;;;;;;5103518;27;45240;-68
2022/07/02 09:19:16;;;;;;;3.85;0.75;;;21.20;58.20;;;;;;5102850;27;45331;-69
2022/07/02 09:21:43;;;;;;;1.08;0.50;;;21.10;55.30;;;;;;5102596;27;45390;-69
2022/07/02 09:24:10;;;;;;;2.95;0.60;;;21.00;61.40;;;;;;5102644;27;45375;-68
2022/07/02 09:26:37;;;;;;;2.22;0.70;;;21.10;60.10;;;;;;5099604;27;45357;-68
2022/07/02 09:29:04;;;;;;;1.42;0.40;;;21.30;65.60;;;;;;5098880;27;45463;-69
2022/07/02 09:31:32;;;;;;;1.40;0.60;;;21.30;57.30;;;;;;5097193;27;45774;-69
2022/07/02 09:33:59;;;;;;;1.90;0.57;;;21.40;65.20;;;;;;5100820;27;45380;-69
2022/07/02 09:36:27;;;;;;;5.05;0.63;;;21.40;60.40;;;;;;5100738;27;45344;-68
2022/07/02 09:38:55;;;;;;;1.13;0.50;;;21.40;65.40;;;;;;5101575;27;45414;-69
2022/07/02 09:41:24;;;;;;;2.28;0.55;;;21.40;62.20;;;;;;5102009;27;45395;-70
2022/07/02 09:43:58;;;;;;;1.00;0.40;;;21.40;65.00;;;;;;5103675;27;45722;-69
2022/07/02 09:46:25;;;;;;;1.48;0.40;;;21.40;63.30;;;;;;5102766;27;45589;-69
2022/07/02 09:48:52;;;;;;;7.97;0.57;;;21.40;65.90;;;;;;5100332;27;45884;-69
2022/07/02 09:51:19;;;;;;;3.17;0.60;;;21.40;67.20;;;;;;5096037;27;48069;-69
2022/07/02 09:53:52;;;;;;;1.88;0.55;;;21.50;66.10;;;;;;5101568;27;45366;-69
2022/07/02 09:56:20;;;;;;;3.15;0.40;;;21.40;67.90;;;;;;5096049;27;45544;-69
2022/07/02 09:58:47;;;;;;;1.77;0.50;;;21.50;65.10;;;;;;5093491;27;45632;-69
2022/07/02 10:01:19;;;;;;;2.05;0.57;;;21.50;61.40;;;;;;5099467;27;45588;-69
2022/07/02 10:03:50;;;;;;;2.50;0.77;;;21.50;61.90;;;;;;5101741;27;45361;-68
2022/07/02 10:06:17;;;;;;;0.60;0.40;;;21.50;67.70;;;;;;5095371;27;45404;-69
2022/07/02 10:08:44;;;;;;;3.53;0.65;;;21.50;68.40;;;;;;5107276;27;45574;-70
2022/07/02 10:11:14;;;;;;;1.10;0.40;;;21.50;69.10;;;;;;5101683;27;45352;-69
2022/07/02 10:13:42;;;;;;;0.50;0.40;;;21.50;67.70;;;;;;5100806;27;45286;-68
2022/07/02 10:16:14;;;;;;;0.52;0.30;;;21.60;71.50;;;;;;5094459;27;45281;-68
2022/07/02 10:18:41;;;;;;;0.60;0.43;;;21.60;73.30;;;;;;5098981;27;45484;-69
2022/07/02 10:21:11;;;;;;;4.18;0.60;;;21.40;65.90;;;;;;5098825;27;46736;-69
2022/07/02 10:23:39;;;;;;;1.27;0.50;;;21.30;71.70;;;;;;5098030;27;45768;-68
2022/07/02 10:26:06;;;;;;;6.35;0.57;;;21.20;76.10;;;;;;5101382;27;45390;-68
2022/07/02 10:28:34;;;;;;;2.30;0.73;;;21.30;73.80;;;;;;5099850;27;45293;-68
2022/07/02 10:31:02;;;;;;;2.45;0.40;;;21.30;76.10;;;;;;5099031;27;46133;-68
2022/07/02 10:33:35;;;;;;;0.77;0.45;;;21.20;75.20;;;;;;5100280;27;45335;-68
2022/07/02 10:36:04;;;;;;;1.10;0.40;;;21.20;76.30;;;;;;5100360;27;45470;-69
2022/07/02 10:38:33;;;;;;;1.35;0.50;;;21.40;69.90;;;;;;5101947;27;45257;-69
2022/07/02 10:41:01;;;;;;;1.00;0.30;;;21.40;71.30;;;;;;5100007;27;45268;-69
2022/07/02 10:43:29;;;;;;;2.17;0.40;;;21.40;68.40;;;;;;5098141;27;45486;-68
2022/07/02 10:46:04;;;;;;;1.45;0.40;;;21.50;73.50;;;;;;5102527;27;45616;-68
2022/07/02 10:48:34;;;;;;;1.50;0.47;;;21.70;75.40;;;;;;5101660;27;45694;-69
2022/07/02 10:51:02;;;;;;;3.00;0.45;;;21.80;75.80;;;;;;5101365;27;45484;-69
2022/07/02 10:53:30;;;;;;;0.82;0.50;;;21.90;75.60;;;;;;5097783;27;45634;-69
2022/07/02 10:56:02;;;;;;;2.25;0.70;;;22.10;69.30;;;;;;5096164;27;45412;-69
2022/07/02 10:58:31;;;;;;;1.27;0.70;;;22.10;74.40;;;;;;5105337;27;45804;-68
2022/07/02 11:01:10;;;;;;;0.93;0.70;;;22.00;75.30;;;;;;5099747;27;46316;-69
2022/07/02 11:03:37;;;;;;;1.98;0.80;;;22.00;75.40;;;;;;5100331;27;45618;-69
2022/07/02 11:06:05;;;;;;;1.85;0.57;;;22.00;75.20;;;;;;5094599;27;45638;-68
2022/07/02 11:08:46;;;;;;;1.40;0.77;;;22.00;74.90;;;;;;5100149;27;45462;-69
2022/07/02 11:11:16;;;;;;;1.80;0.68;;;22.10;74.70;;;;;;5095382;27;47669;-68
2022/07/02 11:13:47;;;;;;;2.88;0.80;;;22.00;74.20;;;;;;5093916;27;45494;-68
2022/07/02 11:16:24;;;;;;;2.03;0.70;;;22.10;73.80;;;;;;5093468;27;45472;-69
2022/07/02 11:18:52;;;;;;;1.52;1.02;;;22.10;72.10;;;;;;5099235;27;45351;-68
2022/07/02 11:21:20;;;;;;;5.95;0.60;;;22.10;73.20;;;;;;5099368;27;46599;-68
2022/07/02 11:23:47;;;;;;;3.20;0.75;;;22.10;72.00;;;;;;5096767;27;45424;-69
2022/07/02 11:26:18;;;;;;;3.03;0.77;;;22.10;71.70;;;;;;5097211;27;45438;-69
2022/07/02 11:28:45;;;;;;;3.42;0.73;;;22.10;67.10;;;;;;5097706;27;45525;-69
2022/07/02 11:31:13;;;;;;;3.42;0.80;;;22.10;63.80;;;;;;5097114;27;45516;-68
2022/07/02 11:33:46;;;;;;;5.45;0.88;;;22.10;71.80;;;;;;5092163;27;45441;-69
2022/07/02 11:36:13;;;;;;;1.13;0.50;;;22.10;71.50;;;;;;5095260;27;45465;-69
2022/07/02 11:38:41;;;;;;;2.20;0.55;;;22.10;71.80;;;;;;5100066;27;45486;-69
2022/07/02 11:41:23;;;;;;;0.70;0.40;;;22.00;72.10;;;;;;5099789;27;45419;-68
2022/07/02 11:43:51;;;;;;;3.45;0.82;;;22.10;70.50;;;;;;5100672;27;45321;-68
2022/07/02 11:46:21;;;;;;;1.73;0.50;;;22.10;70.30;;;;;;5100641;27;46639;-69
2022/07/02 11:48:50;;;;;;;1.85;0.57;;;22.00;67.50;;;;;;5103258;27;45351;-69
2022/07/02 11:51:19;;;;;;;1.98;0.70;;;22.00;68.80;;;;;;5101632;27;45357;-69
2022/07/02 11:53:56;;;;;;;2.72;0.93;;;22.00;69.10;;;;;;5102456;27;45591;-69
2022/07/02 11:56:23;;;;;;;2.45;0.52;;;21.90;69.20;;;;;;5097017;27;45484;-69
2022/07/02 11:58:50;;;;;;;1.42;0.65;;;21.90;71.70;;;;;;5102567;27;45420;-69
2022/07/02 12:01:19;;;;;;;0.90;0.40;;;21.90;72.30;;;;;;5099166;27;48360;-68
2022/07/02 12:03:46;;;;;;;1.85;0.60;;;21.80;69.90;;;;;;5103264;27;45272;-69
2022/07/02 12:06:14;;;;;;;1.17;0.52;;;21.90;69.80;;;;;;5096364;27;45308;-68
2022/07/02 12:08:42;;;;;;;1.40;0.50;;;21.80;69.40;;;;;;5098455;27;45623;-69
2022/07/02 12:11:16;;;;;;;3.72;0.50;;;21.80;67.60;;;;;;5100788;27;47334;-69
2022/07/02 12:13:44;;;;;;;2.40;0.30;;;21.80;62.70;;;;;;5104871;27;45236;-69
2022/07/02 12:16:13;;;;;;;2.50;0.60;;;21.80;71.40;;;;;;5105306;27;45295;-69
2022/07/02 12:18:40;;;;;;;0.65;0.40;;;21.80;69.40;;;;;;5099963;27;45617;-69
2022/07/02 12:21:11;;;;;;;2.15;0.63;;;21.80;68.80;;;;;;5098166;27;45425;-68
2022/07/02 12:23:48;;;;;;;0.75;0.40;;;21.80;67.80;;;;;;5103380;27;45371;-69
2022/07/02 12:26:26;;;;;;;1.25;0.40;;;21.80;71.10;;;;;;5097395;27;45453;-68
2022/07/02 12:31:43;;;;;;;4.93;0.47;;;21.80;72.80;;;;;;5102276;27;45662;-70
2022/07/02 12:34:10;;;;;;;1.73;0.50;;;21.90;70.10;;;;;;5104696;27;45431;-69
2022/07/02 12:36:48;;;;;;;2.42;0.45;;;21.90;72.10;;;;;;5103108;27;45425;-69
2022/07/02 12:39:16;;;;;;;0.32;0.28;;;21.80;70.50;;;;;;5099645;27;45209;-69
2022/07/02 12:41:43;;;;;;;2.95;0.40;;;21.80;71.60;;;;;;5103376;27;45343;-69
2022/07/02 12:44:20;;;;;;;0.40;0.30;;;21.80;65.50;;;;;;5101497;27;45432;-68
2022/07/02 12:46:49;;;;;;;1.15;0.45;;;21.90;69.60;;;;;;5102899;27;45333;-69
2022/07/02 12:49:21;;;;;;;3.30;0.30;;;21.90;67.70;;;;;;5104044;27;45263;-69
2022/07/02 12:51:59;;;;;;;2.45;0.73;;;21.90;69.60;;;;;;5093660;27;47326;-69
2022/07/02 12:54:38;;;;;;;1.67;0.50;;;21.90;58.60;;;;;;5096618;27;45719;-69
2022/07/02 12:57:15;;;;;;;0.38;0.35;;;21.90;59.60;;;;;;5101231;27;45546;-68
2022/07/02 12:59:43;;;;;;;1.80;0.47;;;21.90;70.20;;;;;;5099379;27;45398;-69
2022/07/02 13:02:16;;;;;;;0.98;0.50;;;21.90;71.00;;;;;;5102765;27;47858;-69
2022/07/02 13:04:44;;;;;;;2.25;0.60;;;21.90;71.70;;;;;;5103034;27;45373;-69
2022/07/02 13:07:13;;;;;;;1.73;0.50;;;21.90;72.10;;;;;;5097144;27;45327;-69
2022/07/02 13:09:42;;;;;;;2.38;0.50;;;21.90;73.80;;;;;;5099579;27;45350;-68
2022/07/02 13:12:11;;;;;;;4.40;0.65;;;22.00;74.20;;;;;;5101285;27;47101;-69
2022/07/02 13:14:38;;;;;;;0.40;0.30;;;22.00;73.50;;;;;;5093712;27;45397;-68